Time,TemperatureF,DewpointF,PressureIn,WindDirection,WindDirectionDegrees,WindSpeedMPH,WindSpeedGustMPH,Humidity,HourlyPrecipIn,Conditions,Clouds,dailyrainin,SoftwareType,DateUTC
2013-01-19 00:03:00,21.0,-99.9,29.76,WNW,288,3.0,5.0,-999,-99.99,,,-99.99,,2013-01-19 06:03:00,
2013-01-19 01:02:00,-999.0,-99.9,-100.00,WNW,298,4.0,5.0,-999,-99.99,,,-99.99,,2013-01-19 07:02:00,
2013-01-19 01:12:00,-999.0,-99.9,29.78,WNW,298,4.0,5.0,-999,-99.99,,,-99.99,,2013-01-19 07:12:00,
2013-01-19 01:33:00,21.0,-99.9,29.80,WNW,288,7.0,8.0,-999,-99.99,,,-99.99,,2013-01-19 07:33:00,
2013-01-19 02:03:00,20.0,-99.9,29.79,NW,311,2.0,4.0,-999,-99.99,,,-99.99,,2013-01-19 08:03:00,
2013-01-19 02:33:00,-999.0,-99.9,-100.00,NW,312,6.0,7.0,-999,-99.99,,,-99.99,,2013-01-19 08:33:00,
2013-01-19 02:43:00,-999.0,-99.9,29.83,NW,312,6.0,7.0,-999,-99.99,,,-99.99,,2013-01-19 08:43:00,
2013-01-19 03:02:00,20.0,-99.9,29.82,NW,312,4.0,6.0,-999,-99.99,,,-99.99,,2013-01-19 09:02:00,
2013-01-19 04:02:00,21.0,-99.9,29.83,WNW,293,5.0,6.0,-999,-99.99,,,-99.99,,2013-01-19 10:02:00,
2013-01-19 04:33:00,21.0,-99.9,29.84,West,274,5.0,7.0,-999,-99.99,,,-99.99,,2013-01-19 10:33:00,
2013-01-19 07:03:00,-999.0,-99.9,-100.00,SSW,207,3.0,4.0,-999,-99.99,,,-99.99,,2013-01-19 13:03:00,
2013-01-19 07:13:00,-999.0,-99.9,29.82,SSW,207,3.0,4.0,-999,-99.99,,,-99.99,,2013-01-19 13:13:00,
2013-01-19 07:34:00,-999.0,-99.9,-100.00,SSW,201,3.0,4.0,-999,-99.99,,,-99.99,,2013-01-19 13:34:00,
2013-01-19 07:43:00,-999.0,-99.9,29.81,SSW,201,3.0,4.0,-999,-99.99,,,-99.99,,2013-01-19 13:43:00,
2013-01-19 08:03:00,25.0,-99.9,29.79,ENE,66,1.0,2.0,-999,-99.99,,,-99.99,,2013-01-19 14:03:00,
2013-01-19 08:34:00,26.0,-99.9,29.78,ENE,75,5.0,6.0,-999,-99.99,,,-99.99,,2013-01-19 14:34:00,
2013-01-19 09:04:00,-999.0,-99.9,-100.00,SE,128,10.0,11.0,-999,-99.99,,,-99.99,,2013-01-19 15:04:00,
2013-01-19 09:13:00,-999.0,-99.9,29.78,SE,128,10.0,11.0,-999,-99.99,,,-99.99,,2013-01-19 15:13:00,
2013-01-19 09:34:00,26.0,-99.9,29.78,South,170,8.0,11.0,-999,-99.99,,,-99.99,,2013-01-19 15:34:00,
2013-01-19 10:33:00,28.0,-99.9,29.75,SSE,150,9.0,11.0,-999,-99.99,,,-99.99,,2013-01-19 16:33:00,
2013-01-19 11:03:00,29.0,-99.9,29.70,SSE,155,11.0,13.0,-999,-99.99,,,-99.99,,2013-01-19 17:03:00,
2013-01-19 11:38:00,31.0,-99.9,29.68,SSW,198,5.0,10.0,-999,-99.99,,,-99.99,,2013-01-19 17:38:00,
2013-01-19 12:13:00,-999.0,-99.9,-100.00,NW,307,5.0,6.0,-999,-99.99,,,-99.99,,2013-01-19 18:13:00,
2013-01-19 12:39:00,32.0,-99.9,29.64,North,4,3.0,4.0,-999,-99.99,,,-99.99,,2013-01-19 18:39:00,
2013-01-19 13:04:00,33.0,-99.9,29.61,North,-999,-999.0,-999.0,-999,-99.99,,,-99.99,,2013-01-19 19:04:00,
2013-01-19 13:10:00,33.0,-99.9,29.60,East,86,6.0,6.0,-999,-99.99,,,-99.99,,2013-01-19 19:10:00,
2013-01-19 13:22:00,33.0,-99.9,29.60,North,-999,-999.0,-999.0,-999,-99.99,,,-99.99,,2013-01-19 19:22:00,
2013-01-19 13:32:00,37.0,-99.9,29.59,North,-999,-999.0,-999.0,-999,-99.99,,,-99.99,,2013-01-19 19:32:00,
2013-01-19 13:40:00,-999.0,-99.9,-100.00,South,181,9.0,12.0,-999,-99.99,,,-99.99,,2013-01-19 19:40:00,
2013-01-19 13:50:00,38.0,-99.9,29.57,South,181,9.0,12.0,-999,-99.99,,,-99.99,,2013-01-19 19:50:00,
2013-01-19 13:59:00,39.0,-99.9,29.57,North,-999,-999.0,-999.0,-999,-99.99,,,-99.99,,2013-01-19 19:59:00,
2013-01-19 14:12:00,39.0,-99.9,29.56,SSW,213,12.0,17.0,-999,-99.99,,,-99.99,,2013-01-19 20:12:00,
2013-01-19 14:20:00,38.0,-99.9,29.55,North,-999,-999.0,-999.0,-999,-99.99,,,-99.99,,2013-01-19 20:20:00,
2013-01-19 14:28:00,39.0,-99.9,29.55,North,-999,-999.0,-999.0,-999,-99.99,,,-99.99,,2013-01-19 20:28:00,
2013-01-19 14:40:00,39.0,-99.9,29.54,North,-999,-999.0,-999.0,-999,-99.99,,,-99.99,,2013-01-19 20:40:00,
2013-01-19 14:50:00,38.0,-99.9,29.54,North,-999,-999.0,-999.0,-999,-99.99,,,-99.99,,2013-01-19 20:50:00,
2013-01-19 14:59:00,39.0,-99.9,29.54,North,-999,-999.0,-999.0,-999,-99.99,,,-99.99,,2013-01-19 20:59:00,
2013-01-19 15:15:00,40.0,-99.9,29.54,WSW,238,15.0,20.0,-999,-99.99,,,-99.99,,2013-01-19 21:15:00,
2013-01-19 15:30:00,40.0,-99.9,29.54,North,-999,-999.0,-999.0,-999,-99.99,,,-99.99,,2013-01-19 21:30:00,
2013-01-19 15:48:00,40.0,-99.9,29.54,North,-999,-999.0,-999.0,-999,-99.99,,,-99.99,,2013-01-19 21:48:00,
2013-01-19 16:02:00,40.0,-99.9,29.52,North,-999,-999.0,-999.0,-999,-99.99,,,-99.99,,2013-01-19 22:02:00,
2013-01-19 16:20:00,41.0,-99.9,29.51,North,-999,-999.0,-999.0,-999,-99.99,,,-99.99,,2013-01-19 22:20:00,
2013-01-19 16:29:00,41.0,-99.9,29.51,North,-999,-999.0,-999.0,-999,-99.99,,,-99.99,,2013-01-19 22:29:00,
2013-01-19 16:37:00,-999.0,-99.9,-100.00,SSW,213,11.0,16.0,-999,-99.99,,,-99.99,,2013-01-19 22:37:00,
2013-01-19 16:49:00,41.0,-99.9,29.51,SSW,213,11.0,16.0,-999,-99.99,,,-99.99,,2013-01-19 22:49:00,
2013-01-19 16:59:00,41.0,-99.9,29.50,North,-999,-999.0,-999.0,-999,-99.99,,,-99.99,,2013-01-19 22:59:00,
2013-01-19 17:14:00,41.0,-99.9,29.50,SW,225,17.0,23.0,-999,-99.99,,,-99.99,,2013-01-19 23:14:00,
2013-01-19 17:29:00,41.0,-99.9,29.51,North,-999,-999.0,-999.0,-999,-99.99,,,-99.99,,2013-01-19 23:29:00,
2013-01-19 17:35:00,41.0,-99.9,29.52,WSW,242,16.0,26.0,-999,-99.99,,,-99.99,,2013-01-19 23:35:00,
2013-01-19 18:08:00,41.0,-99.9,29.52,North,-999,-999.0,-999.0,-999,-99.99,,,-99.99,,2013-01-20 00:08:00,
2013-01-19 18:17:00,35.0,-99.9,29.54,North,-999,-999.0,-999.0,-999,-99.99,,,-99.99,,2013-01-20 00:17:00,
2013-01-19 18:26:00,35.0,-99.9,29.54,North,-999,-999.0,-999.0,-999,-99.99,,,-99.99,,2013-01-20 00:26:00,
2013-01-19 18:39:00,-999.0,-99.9,-100.00,WSW,258,13.0,17.0,-999,-99.99,,,-99.99,,2013-01-20 00:39:00,
2013-01-19 18:48:00,35.0,-99.9,29.53,WSW,258,13.0,17.0,-999,-99.99,,,-99.99,,2013-01-20 00:48:00,
2013-01-19 18:58:00,35.0,-99.9,29.54,North,-999,-999.0,-999.0,-999,-99.99,,,-99.99,,2013-01-20 00:58:00,
2013-01-19 19:05:00,35.0,-99.9,29.54,WSW,256,20.0,27.0,-999,-99.99,,,-99.99,,2013-01-20 01:05:00,
2013-01-19 19:22:00,36.0,-99.9,29.53,North,-999,-999.0,-999.0,-999,-99.99,,,-99.99,,2013-01-20 01:22:00,
2013-01-19 19:28:00,35.0,-99.9,29.53,North,-999,-999.0,-999.0,-999,-99.99,,,-99.99,,2013-01-20 01:28:00,
2013-01-19 19:39:00,35.0,-99.9,29.52,North,-999,-999.0,-999.0,-999,-99.99,,,-99.99,,2013-01-20 01:39:00,
2013-01-19 19:54:00,-999.0,-99.9,-100.00,SW,231,12.0,17.0,-999,-99.99,,,-99.99,,2013-01-20 01:54:00,
2013-01-19 20:05:00,35.0,-99.9,29.52,SW,231,12.0,17.0,-999,-99.99,,,-99.99,,2013-01-20 02:05:00,
2013-01-19 20:15:00,35.0,-99.9,29.51,WSW,240,15.0,21.0,-999,-99.99,,,-99.99,,2013-01-20 02:15:00,
2013-01-19 20:28:00,35.0,-99.9,29.52,North,-999,-999.0,-999.0,-999,-99.99,,,-99.99,,2013-01-20 02:28:00,
2013-01-19 20:38:00,34.0,-99.9,29.52,West,277,13.0,17.0,-999,-99.99,,,-99.99,,2013-01-20 02:38:00,
2013-01-19 21:09:00,-999.0,-99.9,-100.00,NW,309,31.0,45.0,-999,-99.99,,,-99.99,,2013-01-20 03:09:00,
2013-01-19 21:15:00,-999.0,-99.9,29.58,NW,309,31.0,45.0,-999,-99.99,,,-99.99,,2013-01-20 03:15:00,
2013-01-19 21:40:00,-999.0,-99.9,-100.00,WNW,292,20.0,34.0,-999,-99.99,,,-99.99,,2013-01-20 03:40:00,
2013-01-19 21:48:00,-999.0,-99.9,29.61,WNW,292,20.0,34.0,-999,-99.99,,,-99.99,,2013-01-20 03:48:00,
2013-01-19 22:05:00,23.0,-99.9,29.63,WNW,288,23.0,40.0,-999,-99.99,,,-99.99,,2013-01-20 04:05:00,
2013-01-19 22:38:00,21.0,-99.9,29.67,WNW,291,19.0,40.0,-999,-99.99,,,-99.99,,2013-01-20 04:38:00,
2013-01-19 23:04:00,-999.0,-99.9,-100.00,WNW,285,22.0,40.0,-999,-99.99,,,-99.99,,2013-01-20 05:04:00,
2013-01-19 23:12:00,-999.0,-99.9,29.72,WNW,285,22.0,40.0,-999,-99.99,,,-99.99,,2013-01-20 05:12:00,
2013-01-19 23:33:00,17.0,-99.9,29.75,West,276,22.0,33.0,-999,-99.99,,,-99.99,,2013-01-20 05:33:00,